Weather observations for the past three days for
Faribault, Faribault Municipal Airport
Imperial (Metric)
Date Time (cdt) Wind (mph) Vis. (mi.) Weather Sky Cond. Temperature (ºF) Relative Humidity Wind Chill (°F) Heat Index (°F) Pressure Precipitation (in)
Air Dwpt 6 hour altimeter (in) sea level (mb) 1 hr 3 hr 6 hr
Max. Min.
06 12:55 SE 10 10.00 Partly Cloudy SCT019 75.2 66.2 74% 77 30.08 0.0
06 12:35 SE 10 10.00 Partly Cloudy SCT019 75.2 66.2 74% 77 30.09 0.0
06 12:15 SE 8 10.00 Partly Cloudy SCT015 77 68 74% 79 30.09 0.0
06 11:55 SE 6 10.00 Mostly Cloudy BKN015 75.2 66.2 74% 77 30.1 0.0
06 11:35 E 8 10.00 Overcast OVC013 73.4 66.2 78% 30.1 0.0
06 11:15 SE 10 10.00 Overcast OVC011 71.6 66.2 83% 30.1 0.0
06 10:55 SE 8 10.00 Overcast OVC011 71.6 66.2 83% 30.1 0.0
06 10:35 SE 9 10.00 Overcast OVC009 71.6 66.2 83% 30.1 0.0
06 10:15 SE 8 10.00 Overcast OVC009 71.6 66.2 83% 30.1 0.0
06 09:55 SE 8 10.00 Overcast OVC009 71.6 66.2 83% 30.09 0.0
06 09:35 SE 9 10.00 Overcast OVC009 71.6 66.2 83% 30.09 0.0
06 09:15 SE 7 10.00 Overcast OVC007 69.8 66.2 88% 30.1 0.0
06 08:55 SE 10 7.00 Overcast OVC005 69.8 66.2 88% 30.09 0.0
06 08:35 SE 10 5.00 Fog/Mist OVC005 69.8 66.2 88% 30.09 0.0
06 08:15 SE 7 4.00 Fog/Mist OVC005 68 66.2 94% 30.09 0.0
06 07:55 SE 9 4.00 Fog/Mist OVC005 68 66.2 94% 30.08 0.0
06 07:35 SE 6 7.00 Partly Cloudy SCT005 68 66.2 94% 30.08 0.0
06 07:15 SE 5 7.00 Fair CLR 66.2 66.2 100% 30.07 0.0
06 06:55 Calm 7.00 Fair CLR 66.2 64.4 94% 30.07 0.0
06 06:35 E 5 10.00 Fair CLR 66.2 64.4 94% 30.07 0.0
06 06:15 SE 5 10.00 Fair CLR 66.2 64.4 94% 30.06 0.0
06 05:55 SE 6 10.00 Fair CLR 66.2 64.4 94% 30.06 0.0
06 05:35 SE 3 10.00 Fair CLR 66.2 64.4 94% 30.06 0.0
06 05:15 SE 3 10.00 Fair CLR 68 66.2 94% 30.06 0.0
06 04:55 SE 5 10.00 Fair CLR 68 64.4 88% 30.05 0.0
06 04:15 SE 5 10.00 Fair CLR 69.8 66.2 88% 30.03 0.0
06 03:55 SE 5 10.00 Partly Cloudy SCT120 69.8 66.2 88% 30.03 0.0
06 03:35 SE 7 10.00 Mostly Cloudy BKN120 69.8 66.2 88% 30.03 0.0
06 03:15 SE 5 10.00 Fair CLR 69.8 66.2 88% 30.03 0.0
06 02:55 SE 8 10.00 Fair CLR 71.6 66.2 83% 30.03 0.0
06 02:35 E 3 10.00 Fair CLR 71.6 66.2 83% 30.04 0.0
06 02:15 SE 7 10.00 Fair CLR 71.6 66.2 83% 30.04 0.0
06 01:55 SE 6 10.00 Fair CLR 71.6 66.2 83% 30.04 0.0
06 01:35 SE 6 10.00 Partly Cloudy SCT120 71.6 66.2 83% 30.04 0.0
06 01:15 SE 7 10.00 Partly Cloudy SCT110 71.6 68 88% 30.04 0.0
06 00:55 E 6 10.00 Fair CLR 71.6 68 88% 30.05 0.0
06 00:35 E 3 10.00 Partly Cloudy SCT110 71.6 68 88% 30.05 0.0
06 00:15 E 5 10.00 Partly Cloudy SCT110 71.6 68 88% 30.05 0.0
05 23:55 E 5 10.00 Partly Cloudy SCT110 71.6 68 88% 30.06 0.0
05 23:35 Calm 10.00 Mostly Cloudy BKN110 71.6 68 88% 30.06 0.0
05 23:15 Calm 10.00 Mostly Cloudy BKN120 69.8 68 94% 30.05 0.0
05 22:55 Calm 10.00 Partly Cloudy SCT120 69.8 68 94% 30.05 0.0
05 22:35 NE 3 10.00 Partly Cloudy SCT120 71.6 69.8 94% 30.05 0.0
05 22:15 Calm 10.00 Mostly Cloudy BKN120 69.8 68 94% 30.06 0.0
05 21:55 Calm 10.00 Mostly Cloudy BKN120 69.8 68 94% 30.06 0.0
05 21:35 Calm 10.00 Fair CLR 71.6 69.8 94% 30.05 0.0
05 21:15 Calm 10.00 Fair CLR 71.6 69.8 94% 30.03 0.0
05 20:55 Calm 10.00 Fair CLR 73.4 69.8 89% 30.03 0.0
05 20:35 SE 3 10.00 Partly Cloudy SCT120 73.4 69.8 89% 30.01 0.0
05 20:15 SE 5 10.00 Fair CLR 73.4 69.8 89% 30 0.0
05 19:55 E 5 10.00 Fair CLR 75.2 69.8 83% 75 30 0.0
05 19:35 E 5 10.00 Fair CLR 75.2 69.8 83% 75 30.01 0.0
05 19:15 E 3 10.00 Fair CLR 77 69.8 79% 79 30 0.0
05 18:55 E 6 10.00 Fair CLR 78.8 69.8 74% 81 30 0.0
05 18:35 E 8 10.00 Fair CLR 78.8 69.8 74% 81 29.99 0.0
05 18:15 E 7 10.00 Fair CLR 78.8 69.8 74% 81 29.99 0.0
05 17:55 E 12 10.00 Fair CLR 80.6 69.8 70% 84 29.98 0.0
05 17:35 SE 12 G 16 10.00 Fair CLR 80.6 69.8 70% 84 29.98 0.0
05 17:15 E 7 10.00 Fair CLR 80.6 69.8 70% 84 29.97 0.0
05 16:55 E 8 10.00 Fair CLR 78.8 69.8 74% 81 29.97 0.0
05 16:35 E 6 10.00 Fair CLR 78.8 69.8 74% 81 29.97 0.0
05 16:15 E 3 10.00 Fair CLR 78.8 69.8 74% 81 29.98 0.0
05 15:55 E 6 10.00 Fair CLR 78.8 69.8 74% 81 29.98 0.0
05 15:35 NE 8 10.00 Fair CLR 78.8 69.8 74% 81 29.98 0.0
05 15:15 E 8 10.00 Fair CLR 78.8 69.8 74% 81 29.99 0.0
05 12:55 E 6 10.00 Overcast SCT012 OVC022 75.2 69.8 83% 75 30.04 0.0
05 12:35 Calm 10.00 Overcast BKN012 OVC022 75.2 69.8 83% 75 30.05 0.0
05 12:15 SW 3 10.00 Overcast OVC010 75.2 69.8 83% 75 30.07 0.0
05 11:55 Calm 10.00 Overcast OVC010 73.4 69.8 89% 30.06 0.0
05 11:35 E 3 10.00 Overcast OVC008 73.4 69.8 89% 30.06 0.0
05 11:15 E 3 10.00 Overcast OVC006 71.6 69.8 94% 30.06 0.0
05 10:55 E 3 7.00 Overcast OVC006 71.6 69.8 94% 30.05 0.0
05 10:35 E 7 7.00 Overcast OVC004 71.6 69.8 94% 30.05 0.0
05 10:15 E 5 5.00 Fog/Mist OVC004 69.8 69.8 100% 30.05 0.0
05 09:55 E 6 4.00 Fog/Mist OVC002 69.8 69.8 100% 30.04 0.0
05 09:35 NE 3 1.25 Fog/Mist OVC002 69.8 68 94% 30.03 0.0
05 09:15 NE 5 1.00 Fog/Mist OVC002 69.8 68 94% 30.03 0.0
05 08:55 NE 3 0.50 Fog OVC002 69.8 68 94% 30.03 0.0
05 08:35 Calm 0.50 Fog OVC002 69.8 68 94% 30.02 0.0
05 08:15 Calm 0.50 Fog OVC002 69.8 68 94% 30.02 0.0
05 07:55 Calm 0.25 Fog OVC002 69.8 66.2 88% 30.01 0.0
05 07:35 Calm 0.25 Fog OVC002 68 66.2 94% 30 0.0
05 07:15 NE 5 0.25 Fog OVC002 66.2 66.2 100% 29.98 0.0
05 06:55 NE 5 0.25 Fog OVC002 66.2 66.2 100% 29.99 0.0
05 06:35 NE 5 0.50 Fog OVC002 66.2 66.2 100% 29.99 0.0
05 06:15 NE 5 0.50 Fog OVC002 66.2 66.2 100% 29.98 0.0
05 05:55 NE 3 0.50 Fog OVC002 66.2 66.2 100% 29.98 0.0
05 05:35 NE 3 0.50 Fog OVC002 66.2 66.2 100% 29.98 0.0
05 05:15 NE 3 0.50 Fog OVC002 66.2 66.2 100% 29.98 0.0
05 04:55 NE 5 0.75 Fog/Mist OVC002 66.2 66.2 100% 29.97 0.0
05 04:35 NE 7 4.00 Fog/Mist OVC004 66.2 66.2 100% 29.95 0.0
05 04:15 NE 5 10.00 Mostly Cloudy BKN004 66.2 66.2 100% 29.96 0.0
05 03:55 NE 5 10.00 Fair CLR 66.2 64.4 94% 29.96 0.0
05 03:35 NE 5 10.00 Fair CLR 66.2 66.2 100% 29.97 0.0
05 03:15 NE 3 10.00 Fair CLR 68 66.2 94% 29.97 0.0
05 02:55 NE 3 10.00 Fair CLR 68 66.2 94% 29.97 0.0
05 02:35 NE 5 10.00 Fair CLR 68 66.2 94% 29.98 0.0
05 02:15 N 3 10.00 Fair CLR 69.8 66.2 88% 29.98 0.0
05 01:55 Calm 10.00 Fair CLR 69.8 66.2 88% 29.98 0.0
05 01:35 NE 6 10.00 Fair CLR 69.8 66.2 88% 29.97 0.0
05 01:15 NE 6 10.00 Fair CLR 69.8 66.2 88% 29.97 0.0
05 00:55 N 5 10.00 Fair CLR 69.8 66.2 88% 29.97 0.0
05 00:35 Calm 10.00 Fair CLR 71.6 66.2 83% 29.96 0.0
05 00:15 NE 3 10.00 Fair CLR 71.6 66.2 83% 29.96 0.0
04 23:55 NE 5 10.00 Fair CLR 73.4 66.2 78% 29.96 0.0
04 23:35 Calm 10.00 Fair CLR 73.4 68 83% 29.96 0.0
04 23:15 NE 3 10.00 Fair CLR 73.4 68 83% 29.95 0.0
04 22:55 NE 6 10.00 Partly Cloudy SCT032 75.2 68 78% 76 29.96 0.0
04 22:35 NE 6 10.00 Fair CLR 75.2 69.8 83% 75 29.96 0.0
04 22:15 NE 3 10.00 Fair CLR 75.2 69.8 83% 75 29.96 0.0
04 21:55 NE 3 10.00 Fair CLR 77 69.8 79% 79 29.95 0.0
04 21:35 NE 5 10.00 Fair CLR 75.2 71.6 89% 75 29.95 0.0
04 21:15 N 3 10.00 Fair CLR 77 71.6 83% 78 29.94 0.0
04 20:55 N 3 10.00 Fair CLR 78.8 71.6 79% 82 29.93 0.0
04 20:35 N 3 10.00 Fair CLR 78.8 71.6 79% 82 29.93 0.0
04 20:15 N 3 10.00 Fair CLR 78.8 71.6 79% 82 29.92 0.0
04 19:55 N 3 10.00 Fair CLR 80.6 73.4 79% 85 29.91 0.0
04 19:35 N 5 10.00 Fair CLR 82.4 73.4 74% 88 29.91 0.0
04 19:15 N 5 10.00 Fair CLR 84.2 73.4 70% 91 29.91 0.0
04 18:55 Calm 10.00 Fair CLR 84.2 75.2 74% 92 29.91 0.0
04 18:35 N 5 10.00 Fair CLR 86 75.2 70% 95 29.9 0.0
04 18:15 N 7 10.00 Fair CLR 87.8 75.2 66% 98 29.9 0.0
04 17:55 N 6 10.00 Fair CLR 87.8 75.2 66% 98 29.9 0.0
04 17:35 N 5 10.00 Fair CLR 87.8 75.2 66% 98 29.89 0.0
04 17:15 N 7 10.00 Fair CLR 89.6 75.2 63% 100 29.89 0.0
04 16:55 N 6 10.00 Fair CLR 89.6 75.2 63% 100 29.88 0.0
04 16:35 N 6 10.00 Fair CLR 89.6 75.2 63% 100 29.88 0.0
04 16:15 N 5 10.00 Fair CLR 91.4 75.2 59% 103 29.88 0.0
04 15:55 N 6 10.00 Fair CLR 91.4 77 63% 105 29.88 0.0
04 15:35 N 6 10.00 Fair CLR 91.4 75.2 59% 103 29.88 0.0
04 15:15 Calm 10.00 Fair CLR 91.4 73.4 56% 100 29.87 0.0
04 14:55 Calm 10.00 Fair CLR 91.4 75.2 59% 103 29.87 0.0
04 14:35 Calm 10.00 Fair CLR 91.4 75.2 59% 103 29.87 0.0
04 14:15 Calm 10.00 Fair CLR 91.4 75.2 59% 103 29.88 0.0
04 13:55 Calm 10.00 Fair CLR 91.4 75.2 59% 103 29.88 0.0
04 13:35 SW 3 10.00 Fair CLR 91.4 75.2 59% 103 29.88 0.0
04 13:15 W 5 10.00 Fair CLR 89.6 75.2 63% 100 29.88 0.0
04 12:55 SW 3 10.00 Fair CLR 89.6 75.2 63% 100 29.88 0.0
04 12:35 W 5 10.00 Fair CLR 89.6 75.2 63% 100 29.88 0.0
04 12:15 SW 6 10.00 Fair CLR 89.6 75.2 63% 100 29.87 0.0
04 11:55 Calm 10.00 Fair CLR 87.8 73.4 62% 96 29.87 0.0
04 11:35 Calm 10.00 Fair CLR 87.8 73.4 62% 96 29.87 0.0
04 11:15 Calm 10.00 Fair CLR 86 73.4 66% 93 29.86 0.0
04 10:55 Calm 10.00 Fair CLR 84.2 73.4 70% 91 29.86 0.0
04 10:35 Calm 10.00 Fair CLR 84.2 73.4 70% 91 29.86 0.0
04 10:15 Calm 10.00 Fair CLR 82.4 73.4 74% 88 29.86 0.0
04 09:55 Calm 10.00 Fair CLR 82.4 73.4 74% 88 29.86 0.0
04 09:35 Calm 10.00 Fair CLR 80.6 71.6 74% 85 29.86 0.0
04 09:15 SW 5 10.00 Fair CLR 80.6 71.6 74% 85 29.86 0.0
04 08:55 W 3 10.00 Fair CLR 78.8 71.6 79% 82 29.86 0.0
04 08:35 SW 6 10.00 Fair CLR 77 71.6 83% 78 29.86 0.0
04 08:15 SW 3 10.00 Fair CLR 75.2 71.6 89% 75 29.85 0.0
04 07:55 Calm 10.00 Fair CLR 73.4 71.6 94% 29.85 0.0
04 07:35 Calm 10.00 Fair CLR 73.4 69.8 89% 29.84 0.0
04 06:55 Calm 7.00 Fair CLR 69.8 68 94% 29.84 0.0
04 06:35 S 3 10.00 Fair CLR 71.6 69.8 94% 29.83 0.0
04 06:15 Calm 10.00 Fair CLR 71.6 69.8 94% 29.83 0.0
04 05:55 Calm 10.00 Fair CLR 73.4 69.8 89% 29.83 0.0
04 05:35 S 3 10.00 Fair CLR 73.4 69.8 89% 29.83 0.0
04 05:15 Calm 10.00 Fair CLR 71.6 69.8 94% 29.83 0.0
04 04:55 Calm 10.00 Fair CLR 73.4 71.6 94% 29.82 0.0
04 04:15 Calm 10.00 Fair CLR 73.4 71.6 94% 29.82 0.0
04 03:55 Calm 10.00 Fair CLR 75.2 71.6 89% 75 29.81 0.0
04 03:35 S 3 10.00 Fair CLR 75.2 71.6 89% 75 29.81 0.0
04 03:15 S 3 10.00 Fair CLR 75.2 71.6 89% 75 29.81 0.0
04 02:55 S 3 10.00 Fair CLR 75.2 71.6 89% 75 29.81 0.0
04 02:35 S 3 10.00 Fair CLR 75.2 71.6 89% 75 29.81 0.0
04 02:15 S 3 10.00 Fair CLR 75.2 71.6 89% 75 29.81 0.0
04 01:55 S 3 10.00 Fair CLR 75.2 71.6 89% 75 29.82 0.0
04 01:35 Calm 10.00 Fair CLR 75.2 71.6 89% 75 29.82 0.0
04 01:15 S 3 10.00 Fair CLR 75.2 71.6 89% 75 29.82 0.0
04 00:55 S 3 10.00 Fair CLR 75.2 71.6 89% 75 29.81 0.0
04 00:35 S 3 10.00 Fair CLR 75.2 71.6 89% 75 29.81 0.0
04 00:15 S 6 10.00 Fair CLR 75.2 71.6 89% 75 29.81 0.0
03 23:55 S 6 10.00 Fair CLR 77 71.6 83% 78 29.81 0.0
03 23:35 S 6 10.00 Fair CLR 77 71.6 83% 78 29.81 0.0
03 23:15 S 5 10.00 Fair CLR 77 71.6 83% 78 29.81 0.0
03 22:55 S 5 10.00 Fair CLR 78.8 71.6 79% 82 29.81 0.0
03 22:35 S 7 10.00 Fair CLR 78.8 71.6 79% 82 29.81 0.0
03 22:15 S 5 10.00 Fair CLR 78.8 71.6 79% 82 29.81 0.0
03 21:55 S 6 10.00 Partly Cloudy SCT120 78.8 71.6 79% 82 29.81 0.0
03 21:35 S 5 10.00 Partly Cloudy SCT120 80.6 71.6 74% 85 29.81 0.0
03 21:15 S 5 10.00 Fair CLR 80.6 71.6 74% 85 29.81 0.0
03 20:55 S 7 10.00 Fair CLR 80.6 71.6 74% 85 29.8 0.0
03 20:35 S 8 10.00 Fair CLR 80.6 71.6 74% 85 29.8 0.0
03 20:15 S 6 10.00 Fair CLR 80.6 71.6 74% 85 29.8 0.0
03 19:55 S 3 10.00 Fair CLR 82.4 71.6 70% 87 29.79 0.0
03 19:35 S 7 10.00 Fair CLR 82.4 71.6 70% 87 29.79 0.0
03 19:15 S 6 10.00 Fair CLR 82.4 71.6 70% 87 29.79 0.0
03 18:55 S 6 10.00 Fair CLR 84.2 71.6 66% 90 29.79 0.0
03 18:35 S 6 10.00 Fair CLR 84.2 71.6 66% 90 29.8 0.0
03 18:15 S 9 G 16 10.00 Fair CLR 86 71.6 62% 92 29.78 0.0
03 17:55 S 12 G 17 10.00 Fair CLR 86 69.8 59% 91 29.77 0.0
03 17:35 S 14 G 17 10.00 Fair CLR 87.8 69.8 55% 93 29.78 0.0
03 17:15 S 8 G 12 10.00 Fair CLR 87.8 69.8 55% 93 29.78 0.0
03 16:55 S 10 10.00 Fair CLR 87.8 69.8 55% 93 29.78 0.0
03 16:35 S 10 G 16 10.00 Fair CLR 87.8 69.8 55% 93 29.79 0.0
03 16:15 S 10 G 20 10.00 Fair CLR 86 68 55% 89 29.79 0.0
03 15:55 S 14 G 18 10.00 Fair CLR 86 68 55% 89 29.79 0.0
03 15:35 S 15 G 18 10.00 Fair CLR 87.8 68 52% 91 29.8 0.0
03 15:15 S 14 G 18 10.00 Fair CLR 87.8 68 52% 91 29.8 0.0
03 14:55 S 15 10.00 Fair CLR 86 68 55% 89 29.81 0.0
03 14:35 S 10 10.00 Fair CLR 86 68 55% 89 29.82 0.0
03 14:15 SE 14 10.00 Fair CLR 86 68 55% 89 29.81 0.0
03 13:55 SE 6 10.00 Fair CLR 84.2 66.2 55% 87 29.82 0.0
03 13:35 S 8 10.00 Fair CLR 80.6 66.2 62% 83 29.82 0.0
03 13:15 S 10 10.00 Fair CLR 82.4 66.2 58% 85 29.83 0.0
Date Time (cdt) Wind (mph) Vis. (mi.) Weather Sky Cond. Air Dwpt Max. Min. Relative Humidity Wind Chill (°F) Heat Index (°F) altimeter (in) sea level (mb) 1 hr 3 hr 6 hr
6 hour
Temperature (ºF) Pressure Precipitation (in)